createdAt,value
2023-03-30T00:00:17.014Z,0.00
2023-03-30T00:01:17.068Z,0.00
2023-03-30T00:02:16.941Z,0.00
2023-03-30T00:03:17.107Z,0.00
2023-03-30T00:04:17.112Z,0.00
2023-03-30T00:05:16.974Z,0.00
2023-03-30T00:06:16.934Z,0.00
2023-03-30T00:07:16.967Z,0.00
2023-03-30T00:08:16.878Z,0.00
2023-03-30T00:09:16.930Z,0.00
2023-03-30T00:10:16.830Z,0.00
2023-03-30T00:11:16.908Z,0.00
2023-03-30T00:12:16.874Z,0.00
2023-03-30T00:13:16.873Z,0.00
2023-03-30T00:14:16.772Z,0.00
2023-03-30T00:15:16.877Z,0.00
2023-03-30T00:16:16.778Z,0.00
2023-03-30T00:17:16.818Z,0.00
2023-03-30T00:18:16.750Z,0.00
2023-03-30T00:19:16.809Z,0.00
2023-03-30T00:20:16.713Z,0.00
2023-03-30T00:21:16.745Z,0.00
2023-03-30T00:22:16.687Z,0.00
2023-03-30T00:23:16.725Z,0.00
2023-03-30T00:24:16.652Z,0.00
2023-03-30T00:25:16.706Z,0.00
2023-03-30T00:26:16.632Z,0.00
2023-03-30T00:27:16.690Z,0.00
2023-03-30T00:28:16.620Z,0.00
2023-03-30T00:29:16.619Z,0.00
2023-03-30T00:30:16.553Z,0.00
2023-03-30T00:31:16.753Z,0.00
2023-03-30T00:32:16.553Z,0.00
2023-03-30T00:33:16.579Z,0.00
2023-03-30T00:34:16.499Z,0.00
2023-03-30T00:35:16.561Z,0.00
2023-03-30T00:36:16.663Z,0.00
2023-03-30T00:37:16.533Z,0.00
2023-03-30T00:38:16.482Z,0.00
2023-03-30T00:39:16.448Z,0.00
2023-03-30T00:40:16.417Z,0.00
2023-03-30T00:41:16.482Z,0.00
2023-03-30T00:42:16.600Z,0.00
2023-03-30T00:43:16.412Z,0.00
2023-03-30T00:44:16.351Z,0.00
2023-03-30T00:45:16.459Z,0.00
2023-03-30T00:46:16.372Z,0.00
2023-03-30T00:47:16.331Z,0.00
2023-03-30T00:48:16.330Z,0.00
2023-03-30T00:49:16.357Z,0.00
2023-03-30T00:50:16.292Z,0.00
2023-03-30T00:51:16.408Z,0.00
2023-03-30T00:52:16.256Z,0.00
2023-03-30T00:53:16.336Z,0.00
2023-03-30T00:54:16.263Z,0.00
2023-03-30T00:55:16.287Z,0.00
2023-03-30T00:56:16.205Z,0.00
2023-03-30T00:57:16.359Z,0.00
2023-03-30T00:58:16.203Z,0.00
2023-03-30T00:59:16.195Z,0.00
2023-03-30T01:00:16.160Z,0.00
2023-03-30T01:01:16.346Z,0.00
2023-03-30T01:02:16.162Z,0.00
2023-03-30T01:03:16.328Z,0.00
2023-03-30T01:04:16.078Z,0.00
2023-03-30T01:05:16.169Z,0.00
2023-03-30T01:06:16.911Z,0.00
2023-03-30T01:07:16.151Z,0.00
2023-03-30T01:08:16.028Z,0.00
2023-03-30T01:09:16.171Z,0.00
2023-03-30T01:10:16.018Z,0.00
2023-03-30T01:11:16.056Z,0.00
2023-03-30T01:12:16.023Z,0.00
2023-03-30T01:13:16.048Z,0.00
2023-03-30T01:14:15.970Z,0.00
2023-03-30T01:15:16.003Z,0.00
2023-03-30T01:16:16.004Z,0.00
2023-03-30T01:17:15.977Z,0.00
2023-03-30T01:18:15.952Z,0.00
2023-03-30T01:19:15.930Z,0.00
2023-03-30T01:20:15.847Z,0.00
2023-03-30T01:21:15.964Z,0.00
2023-03-30T01:22:15.902Z,0.00
2023-03-30T01:23:15.920Z,0.00
2023-03-30T01:24:15.893Z,0.00
2023-03-30T01:25:15.828Z,0.00
2023-03-30T01:26:15.791Z,0.00
2023-03-30T01:27:15.892Z,0.00
2023-03-30T01:28:15.767Z,0.00
2023-03-30T01:29:15.851Z,0.00
2023-03-30T01:30:15.764Z,0.00
2023-03-30T01:31:16.037Z,0.00
2023-03-30T01:32:15.719Z,0.00
2023-03-30T01:33:15.745Z,0.00
2023-03-30T01:34:15.700Z,0.00
2023-03-30T01:35:15.809Z,0.00
2023-03-30T01:36:15.733Z,0.00
2023-03-30T01:37:15.738Z,0.00
2023-03-30T01:38:15.614Z,0.00
2023-03-30T01:39:16.813Z,0.00
2023-03-30T01:40:15.599Z,0.00
2023-03-30T01:41:15.587Z,0.00
2023-03-30T01:42:15.621Z,0.00
2023-03-30T01:43:16.594Z,0.00
2023-03-30T01:44:15.572Z,0.00
2023-03-30T01:45:15.632Z,0.00
2023-03-30T01:46:15.547Z,0.00
2023-03-30T01:47:15.632Z,0.00
2023-03-30T01:48:15.543Z,0.00
2023-03-30T01:49:15.539Z,0.00
2023-03-30T01:50:15.527Z,0.00
2023-03-30T01:51:15.640Z,0.00
2023-03-30T01:52:15.470Z,0.00
2023-03-30T01:53:15.447Z,0.00
2023-03-30T01:54:15.483Z,0.00
2023-03-30T01:55:15.498Z,0.00
2023-03-30T01:56:15.392Z,0.00
2023-03-30T01:57:15.603Z,0.00
2023-03-30T01:58:15.358Z,0.00
2023-03-30T01:59:15.377Z,0.00
2023-03-30T02:00:15.463Z,0.00
2023-03-30T02:01:15.405Z,0.00
2023-03-30T02:02:15.372Z,0.00
2023-03-30T02:03:15.435Z,0.00
2023-03-30T02:04:15.258Z,0.00
2023-03-30T02:05:15.358Z,0.00
2023-03-30T02:06:15.253Z,0.00
2023-03-30T02:07:15.332Z,0.00
2023-03-30T02:08:15.225Z,0.00
2023-03-30T02:09:15.270Z,0.00
2023-03-30T02:10:15.220Z,0.00
2023-03-30T02:11:15.256Z,0.00
2023-03-30T02:12:15.165Z,0.00
2023-03-30T02:13:15.299Z,0.00
2023-03-30T02:14:15.186Z,0.00
2023-03-30T02:15:15.232Z,0.00
2023-03-30T02:16:15.139Z,0.00
2023-03-30T02:17:15.242Z,0.00
2023-03-30T02:18:15.079Z,0.00
2023-03-30T02:19:15.127Z,0.00
2023-03-30T02:20:15.092Z,0.00
2023-03-30T02:21:15.163Z,0.00
2023-03-30T02:22:15.028Z,0.00
2023-03-30T02:23:15.159Z,0.00
2023-03-30T02:24:15.042Z,0.00
2023-03-30T02:25:15.063Z,0.00
2023-03-30T02:26:14.967Z,0.00
2023-03-30T02:27:15.041Z,0.00
2023-03-30T02:28:14.968Z,0.00
2023-03-30T02:29:14.945Z,0.00
2023-03-30T02:30:14.920Z,0.00
2023-03-30T02:31:15.034Z,0.00
2023-03-30T02:32:14.952Z,0.00
2023-03-30T02:33:15.007Z,0.00
2023-03-30T02:34:14.955Z,0.00
2023-03-30T02:35:14.941Z,0.00
2023-03-30T02:36:14.944Z,0.00
2023-03-30T02:37:14.961Z,0.00
2023-03-30T02:38:14.814Z,0.00
2023-03-30T02:39:14.923Z,0.00
2023-03-30T02:40:14.860Z,0.00
2023-03-30T02:41:14.816Z,0.00
2023-03-30T02:42:14.807Z,0.00
2023-03-30T02:43:15.937Z,0.00
2023-03-30T02:44:14.788Z,0.00
2023-03-30T02:45:14.881Z,0.00
2023-03-30T02:46:14.956Z,0.00
2023-03-30T02:47:14.743Z,0.00
2023-03-30T02:48:14.695Z,0.00
2023-03-30T02:49:14.721Z,0.00
2023-03-30T02:50:14.640Z,0.00
2023-03-30T02:51:14.718Z,0.00
2023-03-30T02:52:14.632Z,0.00
2023-03-30T02:53:14.742Z,0.00
2023-03-30T02:54:14.575Z,0.00
2023-03-30T02:55:14.718Z,0.00
2023-03-30T02:56:14.563Z,0.00
2023-03-30T02:57:14.681Z,0.00
2023-03-30T02:58:14.611Z,0.00
2023-03-30T02:59:14.604Z,0.00
2023-03-30T03:00:14.546Z,0.00
2023-03-30T03:01:14.674Z,0.00
2023-03-30T03:02:14.513Z,0.00
2023-03-30T03:03:14.638Z,0.00
2023-03-30T03:04:14.493Z,0.00
2023-03-30T03:05:14.543Z,0.00
2023-03-30T03:06:14.456Z,0.00
2023-03-30T03:07:14.524Z,0.00
2023-03-30T03:08:14.422Z,0.00
2023-03-30T03:09:14.495Z,0.00
2023-03-30T03:10:14.398Z,0.00
2023-03-30T03:11:14.502Z,0.00
2023-03-30T03:12:14.356Z,0.00
2023-03-30T03:13:14.436Z,0.00
2023-03-30T03:14:14.303Z,0.00
2023-03-30T03:15:14.402Z,0.00
2023-03-30T03:16:14.345Z,0.00
2023-03-30T03:17:14.387Z,0.00
2023-03-30T03:18:14.420Z,0.00
2023-03-30T03:19:14.340Z,0.00
2023-03-30T03:20:14.241Z,0.00
2023-03-30T03:21:14.350Z,0.00
2023-03-30T03:22:14.241Z,0.00
2023-03-30T03:23:14.309Z,0.00
2023-03-30T03:24:14.168Z,0.00
2023-03-30T03:25:14.334Z,0.00
2023-03-30T03:26:14.174Z,0.00
2023-03-30T03:27:14.193Z,0.00
2023-03-30T03:28:14.179Z,0.00
2023-03-30T03:29:14.225Z,0.00
2023-03-30T03:30:14.091Z,0.00
2023-03-30T03:31:15.293Z,0.00
2023-03-30T03:32:14.067Z,0.00
2023-03-30T03:33:14.199Z,0.00
2023-03-30T03:34:14.126Z,0.00
2023-03-30T03:35:14.146Z,0.00
2023-03-30T03:36:14.123Z,0.00
2023-03-30T03:37:14.093Z,0.00
2023-03-30T03:38:13.982Z,0.00
2023-03-30T03:39:14.083Z,0.00
2023-03-30T03:40:14.007Z,0.00
2023-03-30T03:41:14.020Z,0.00
2023-03-30T03:42:13.920Z,0.00
2023-03-30T03:43:14.068Z,0.00
2023-03-30T03:44:13.907Z,0.00
2023-03-30T03:45:14.031Z,0.00
2023-03-30T03:46:14.024Z,0.00
2023-03-30T03:47:16.337Z,0.00
2023-03-30T03:48:13.844Z,0.00
2023-03-30T03:49:13.992Z,0.00
2023-03-30T03:50:13.838Z,0.00
2023-03-30T03:51:13.932Z,0.00
2023-03-30T03:52:13.815Z,0.00
2023-03-30T03:53:13.852Z,0.00
2023-03-30T03:54:13.772Z,0.00
2023-03-30T03:55:13.905Z,0.00
2023-03-30T03:56:13.773Z,0.00
2023-03-30T03:57:13.814Z,0.00
2023-03-30T03:58:13.755Z,0.00
2023-03-30T03:59:13.792Z,0.00
2023-03-30T04:00:13.714Z,0.00
2023-03-30T04:01:13.815Z,0.00
2023-03-30T04:02:13.748Z,0.00
2023-03-30T04:03:13.773Z,0.00
2023-03-30T04:04:13.812Z,0.00
2023-03-30T04:05:13.847Z,0.00
2023-03-30T04:06:13.778Z,0.00
2023-03-30T04:07:13.739Z,0.00
2023-03-30T04:08:13.644Z,0.00
2023-03-30T04:09:15.840Z,0.00
2023-03-30T04:10:13.622Z,0.00
2023-03-30T04:11:13.737Z,0.00
2023-03-30T04:12:13.532Z,0.00
2023-03-30T04:13:13.643Z,0.00
2023-03-30T04:14:13.661Z,0.00
2023-03-30T04:15:13.614Z,0.00
2023-03-30T04:16:13.645Z,0.00
2023-03-30T04:17:14.660Z,0.00
2023-03-30T04:18:13.597Z,0.00
2023-03-30T04:19:13.559Z,0.00
2023-03-30T04:20:13.448Z,0.00
2023-03-30T04:21:13.532Z,0.00
2023-03-30T04:22:13.449Z,0.00
2023-03-30T04:23:13.466Z,0.00
2023-03-30T04:24:13.357Z,0.00
2023-03-30T04:25:13.426Z,0.00
2023-03-30T04:26:13.390Z,0.00
2023-03-30T04:27:13.408Z,0.00
2023-03-30T04:28:13.386Z,0.00
2023-03-30T04:29:13.402Z,0.00
2023-03-30T04:30:13.317Z,0.00
2023-03-30T04:31:13.386Z,0.00
2023-03-30T04:32:13.307Z,0.00
2023-03-30T04:33:13.324Z,0.00
2023-03-30T04:34:13.282Z,0.00
2023-03-30T04:35:13.312Z,0.00
2023-03-30T04:36:13.279Z,0.00
2023-03-30T04:37:13.517Z,0.00
2023-03-30T04:38:13.247Z,0.00
2023-03-30T04:39:13.232Z,0.00
2023-03-30T04:40:13.317Z,0.00
2023-03-30T04:41:13.185Z,0.00
2023-03-30T04:42:13.127Z,0.00
2023-03-30T04:43:13.273Z,0.00
2023-03-30T04:44:13.091Z,0.00
2023-03-30T04:45:13.197Z,0.00
2023-03-30T04:46:13.201Z,0.00
2023-03-30T04:47:13.144Z,0.00
2023-03-30T04:48:13.046Z,0.00
2023-03-30T04:49:13.210Z,0.00
2023-03-30T04:50:13.145Z,0.00
2023-03-30T04:51:13.195Z,0.00
2023-03-30T04:52:13.177Z,0.00
2023-03-30T04:53:13.021Z,0.00
2023-03-30T04:54:12.980Z,0.00
2023-03-30T04:55:13.155Z,0.00
2023-03-30T04:56:12.931Z,0.00
2023-03-30T04:57:13.052Z,0.00
2023-03-30T04:58:12.940Z,0.00
2023-03-30T04:59:12.988Z,0.00
2023-03-30T05:00:12.879Z,0.00
2023-03-30T05:01:13.040Z,0.00
2023-03-30T05:02:12.930Z,0.00
2023-03-30T05:03:12.982Z,0.00
2023-03-30T05:04:12.908Z,0.00
2023-03-30T05:05:12.959Z,0.00
2023-03-30T05:06:12.808Z,0.00
2023-03-30T05:07:12.926Z,0.00
2023-03-30T05:08:12.761Z,0.00
2023-03-30T05:09:12.829Z,0.00
2023-03-30T05:10:12.790Z,0.00
2023-03-30T05:11:12.812Z,0.00
2023-03-30T05:12:12.706Z,0.00
2023-03-30T05:13:12.778Z,0.00
2023-03-30T05:14:12.683Z,0.00
2023-03-30T05:15:12.781Z,0.00
2023-03-30T05:16:12.695Z,0.00
2023-03-30T05:17:12.789Z,0.00
2023-03-30T05:18:12.712Z,0.00
2023-03-30T05:19:12.763Z,0.00
2023-03-30T05:20:12.655Z,0.00
2023-03-30T05:21:13.781Z,0.00
2023-03-30T05:22:12.714Z,0.00
2023-03-30T05:23:12.640Z,0.00
2023-03-30T05:24:12.559Z,0.00
2023-03-30T05:25:12.719Z,0.00
2023-03-30T05:26:12.536Z,0.00
2023-03-30T05:27:12.609Z,0.00
2023-03-30T05:28:21.053Z,0.00
2023-03-30T05:29:14.611Z,0.00
2023-03-30T05:30:12.501Z,0.00
2023-03-30T05:31:12.565Z,0.00
2023-03-30T05:32:12.459Z,0.00
2023-03-30T05:33:12.457Z,0.00
2023-03-30T05:34:12.525Z,0.00
2023-03-30T05:35:12.501Z,0.00
2023-03-30T05:36:12.429Z,0.00
2023-03-30T05:37:12.430Z,0.00
2023-03-30T05:38:12.545Z,0.00
2023-03-30T05:39:12.454Z,0.00
2023-03-30T05:40:12.511Z,0.00
2023-03-30T05:41:12.289Z,0.00
2023-03-30T05:42:12.570Z,0.00
2023-03-30T05:43:12.307Z,0.00
2023-03-30T05:44:12.698Z,0.00
2023-03-30T05:45:12.286Z,0.00
2023-03-30T05:46:12.416Z,0.00
2023-03-30T05:47:12.281Z,0.00
2023-03-30T05:48:12.347Z,0.00
2023-03-30T05:49:12.213Z,0.00
2023-03-30T05:50:12.394Z,0.00
2023-03-30T05:51:12.198Z,0.00
2023-03-30T05:52:12.195Z,0.00
2023-03-30T05:53:13.368Z,0.00
2023-03-30T05:54:12.158Z,0.00
2023-03-30T05:55:12.206Z,0.00
2023-03-30T05:56:12.109Z,0.00
2023-03-30T05:57:13.399Z,0.00
2023-03-30T05:58:12.127Z,0.00
2023-03-30T05:59:12.050Z,0.00
2023-03-30T06:00:12.228Z,0.00
2023-03-30T06:01:12.069Z,0.00
2023-03-30T06:02:12.058Z,0.00
2023-03-30T06:03:12.180Z,0.00
2023-03-30T06:04:12.182Z,0.00
2023-03-30T06:05:11.977Z,0.00
2023-03-30T06:06:12.011Z,0.00
2023-03-30T06:07:12.010Z,0.00
2023-03-30T06:08:11.978Z,0.00
2023-03-30T06:09:11.946Z,0.00
2023-03-30T06:10:11.957Z,0.00
2023-03-30T06:11:11.901Z,0.00
2023-03-30T06:12:11.922Z,0.00
2023-03-30T06:13:11.873Z,0.00
2023-03-30T06:14:11.873Z,0.00
2023-03-30T06:15:11.857Z,0.00
2023-03-30T06:16:11.886Z,0.00
2023-03-30T06:17:11.817Z,0.00
2023-03-30T06:18:11.997Z,0.00
2023-03-30T06:19:11.787Z,0.00
2023-03-30T06:20:11.930Z,0.00
2023-03-30T06:21:11.739Z,0.00
2023-03-30T06:22:11.979Z,0.00
2023-03-30T06:23:11.778Z,0.00
2023-03-30T06:24:11.940Z,0.00
2023-03-30T06:25:11.688Z,0.00
2023-03-30T06:26:11.743Z,0.00
2023-03-30T06:27:11.843Z,0.00
2023-03-30T06:28:11.940Z,0.00
2023-03-30T06:29:11.752Z,0.00
2023-03-30T06:30:11.659Z,0.00
2023-03-30T06:31:13.671Z,0.00
2023-03-30T06:32:11.730Z,0.00
2023-03-30T06:33:11.790Z,0.00
2023-03-30T06:34:11.643Z,0.00
2023-03-30T06:35:11.660Z,0.00
2023-03-30T06:36:11.597Z,0.00
2023-03-30T06:37:11.661Z,0.00
2023-03-30T06:38:11.634Z,0.00
2023-03-30T06:39:11.649Z,0.00
2023-03-30T06:40:11.497Z,0.00
2023-03-30T06:41:11.655Z,0.00
2023-03-30T06:42:11.509Z,0.00
2023-03-30T06:43:12.907Z,0.00
2023-03-30T06:44:11.623Z,0.00
2023-03-30T06:45:12.603Z,0.00
2023-03-30T06:46:11.525Z,0.00
2023-03-30T06:47:11.570Z,0.00
2023-03-30T06:48:11.560Z,0.00
2023-03-30T06:49:11.640Z,0.00
2023-03-30T06:50:11.442Z,0.00
2023-03-30T06:51:11.428Z,0.00
2023-03-30T06:52:11.506Z,0.00
2023-03-30T06:53:11.361Z,0.00
2023-03-30T06:54:11.328Z,0.00
2023-03-30T06:55:11.452Z,0.00
2023-03-30T06:56:11.461Z,0.00
2023-03-30T06:57:11.376Z,0.00
2023-03-30T06:58:11.500Z,0.00
2023-03-30T06:59:11.334Z,0.00
2023-03-30T07:00:11.477Z,0.00
2023-03-30T07:01:11.246Z,0.00
2023-03-30T07:02:11.250Z,0.00
2023-03-30T07:03:11.516Z,0.00
2023-03-30T07:04:11.303Z,0.00
2023-03-30T07:05:11.284Z,0.00
2023-03-30T07:06:11.254Z,0.00
2023-03-30T07:07:11.131Z,0.00
2023-03-30T07:08:11.333Z,0.00
2023-03-30T07:09:11.241Z,0.00
2023-03-30T07:10:11.333Z,0.00
2023-03-30T07:11:11.099Z,0.00
2023-03-30T07:12:11.435Z,0.00
2023-03-30T07:13:11.105Z,0.00
2023-03-30T07:14:11.299Z,0.00
2023-03-30T07:15:11.160Z,0.00
2023-03-30T07:16:11.113Z,0.00
2023-03-30T07:17:11.150Z,0.00
2023-03-30T07:18:11.181Z,0.00
2023-03-30T07:19:11.128Z,0.00
2023-03-30T07:20:11.132Z,0.00
2023-03-30T07:21:10.951Z,0.00
2023-03-30T07:22:10.970Z,0.00
2023-03-30T07:23:10.986Z,0.00
2023-03-30T07:24:10.977Z,0.00
2023-03-30T07:25:10.938Z,0.00
2023-03-30T07:26:10.931Z,0.00
2023-03-30T07:27:11.101Z,0.00
2023-03-30T07:28:10.853Z,0.00
2023-03-30T07:29:10.915Z,0.00
2023-03-30T07:30:21.119Z,0.00
2023-03-30T07:31:10.872Z,0.00
2023-03-30T07:32:11.167Z,0.00
2023-03-30T07:33:10.931Z,0.00
2023-03-30T07:34:10.952Z,0.00
2023-03-30T07:35:10.911Z,0.00
2023-03-30T07:36:11.065Z,0.00
2023-03-30T07:37:10.739Z,0.00
2023-03-30T07:38:10.990Z,0.00
2023-03-30T07:39:10.748Z,0.00
2023-03-30T07:40:10.772Z,0.00
2023-03-30T07:41:10.845Z,0.00
2023-03-30T07:42:10.684Z,0.00
2023-03-30T07:43:10.783Z,0.00
2023-03-30T07:44:10.636Z,0.00
2023-03-30T07:45:10.803Z,0.00
2023-03-30T07:46:10.679Z,0.00
2023-03-30T07:47:10.704Z,0.00
2023-03-30T07:48:10.717Z,0.00
2023-03-30T07:49:10.826Z,0.00
2023-03-30T07:50:10.566Z,0.00
2023-03-30T07:51:10.871Z,0.00
2023-03-30T07:52:10.644Z,0.00
2023-03-30T07:53:10.554Z,0.00
2023-03-30T07:54:10.674Z,0.00
2023-03-30T07:55:10.468Z,0.00
2023-03-30T07:56:10.473Z,0.00
2023-03-30T07:57:10.702Z,0.00
2023-03-30T07:58:10.490Z,0.00
2023-03-30T07:59:10.640Z,0.00
2023-03-30T08:00:12.345Z,0.00
2023-03-30T08:01:13.486Z,0.00
2023-03-30T08:02:10.429Z,0.00
2023-03-30T08:04:28.862Z,39.38
2023-03-30T08:13:32.076Z,22.50
2023-03-30T08:14:44.128Z,16.88
2023-03-30T08:15:26.569Z,16.88
2023-03-30T08:17:52.830Z,16.88
2023-03-30T08:18:53.672Z,11.25
2023-03-30T08:19:53.788Z,5.62
2023-03-30T08:20:53.640Z,5.62
2023-03-30T08:21:53.675Z,5.62
2023-03-30T08:22:53.645Z,5.62
2023-03-30T08:23:53.656Z,11.25
2023-03-30T08:24:53.659Z,11.25
2023-03-30T08:25:53.834Z,11.25
2023-03-30T08:26:53.604Z,16.88
2023-03-30T08:27:53.550Z,16.88
2023-03-30T08:28:53.608Z,16.88
2023-03-30T08:29:53.538Z,22.50
2023-03-30T08:30:53.520Z,33.75
2023-03-30T08:31:53.543Z,50.62
2023-03-30T08:32:53.553Z,67.50
2023-03-30T08:33:53.488Z,90.00
2023-03-30T08:34:53.472Z,101.25
2023-03-30T08:35:54.771Z,112.50
2023-03-30T08:36:53.441Z,129.38
2023-03-30T08:37:53.438Z,129.38
2023-03-30T08:38:53.481Z,135.00
2023-03-30T08:39:53.431Z,129.38
2023-03-30T08:40:53.383Z,135.00
2023-03-30T08:41:53.451Z,106.88
2023-03-30T08:42:53.356Z,90.00
2023-03-30T08:43:53.355Z,67.50
2023-03-30T08:44:53.340Z,67.50
2023-03-30T08:45:53.382Z,73.12
2023-03-30T08:46:53.296Z,73.12
2023-03-30T08:47:53.305Z,78.75
2023-03-30T08:48:53.272Z,95.62
2023-03-30T08:49:53.358Z,90.00
2023-03-30T08:50:53.262Z,73.12
2023-03-30T08:51:53.308Z,73.12
2023-03-30T08:52:53.226Z,90.00
2023-03-30T08:53:53.199Z,101.25
2023-03-30T08:54:53.230Z,90.00
2023-03-30T08:55:53.189Z,84.38
2023-03-30T08:56:53.413Z,90.00
2023-03-30T08:57:53.157Z,78.75
2023-03-30T08:58:53.225Z,73.12
2023-03-30T08:59:53.148Z,67.50
2023-03-30T09:00:53.159Z,67.50
2023-03-30T09:01:53.332Z,67.50
2023-03-30T09:02:53.181Z,67.50
2023-03-30T09:03:53.119Z,67.50
2023-03-30T09:04:53.092Z,67.50
2023-03-30T09:05:53.074Z,67.50
2023-03-30T09:06:53.042Z,67.50
2023-03-30T09:07:53.112Z,67.50
2023-03-30T09:08:52.985Z,67.50
2023-03-30T09:09:53.139Z,67.50
2023-03-30T09:10:52.955Z,67.50
2023-03-30T09:11:53.040Z,67.50
2023-03-30T09:12:53.024Z,67.50
2023-03-30T09:13:52.947Z,67.50
2023-03-30T09:14:52.944Z,67.50
2023-03-30T09:15:52.927Z,67.50
2023-03-30T09:16:52.991Z,67.50
2023-03-30T09:17:52.915Z,67.50
2023-03-30T09:18:52.864Z,67.50
2023-03-30T09:19:52.924Z,67.50
2023-03-30T09:20:52.881Z,67.50
2023-03-30T09:21:52.849Z,73.12
2023-03-30T09:22:52.914Z,67.50
2023-03-30T09:23:52.838Z,67.50
2023-03-30T09:24:52.781Z,67.50
2023-03-30T09:25:52.770Z,67.50
2023-03-30T09:26:52.804Z,67.50
2023-03-30T09:27:54.147Z,73.12
2023-03-30T09:28:52.742Z,95.62
2023-03-30T09:29:52.716Z,90.00
2023-03-30T09:30:52.984Z,95.62
2023-03-30T09:31:52.794Z,101.25
2023-03-30T09:32:52.748Z,140.62
2023-03-30T09:33:52.778Z,118.12
2023-03-30T09:34:52.690Z,129.38
2023-03-30T09:35:52.776Z,90.00
2023-03-30T09:36:52.629Z,78.75
2023-03-30T09:37:52.684Z,84.38
2023-03-30T09:38:52.584Z,112.50
2023-03-30T09:39:52.585Z,78.75
2023-03-30T09:40:52.606Z,118.12
2023-03-30T09:41:52.584Z,123.75
2023-03-30T09:42:52.534Z,129.38
2023-03-30T09:43:52.557Z,129.38
2023-03-30T09:44:52.773Z,146.25
2023-03-30T09:45:52.549Z,185.62
2023-03-30T09:46:52.482Z,180.00
2023-03-30T09:47:52.552Z,157.50
2023-03-30T09:48:52.463Z,163.12
2023-03-30T09:49:52.435Z,174.38
2023-03-30T09:50:52.503Z,208.12
2023-03-30T09:51:52.570Z,202.50
2023-03-30T09:52:52.383Z,151.88
2023-03-30T09:53:52.590Z,123.75
2023-03-30T09:54:52.365Z,129.38
2023-03-30T09:55:52.376Z,101.25
2023-03-30T09:56:52.379Z,101.25
2023-03-30T09:57:52.335Z,118.12
2023-03-30T09:58:52.304Z,101.25
2023-03-30T09:59:52.300Z,78.75
2023-03-30T10:00:52.332Z,84.38
2023-03-30T10:01:52.357Z,84.38
2023-03-30T10:02:52.323Z,61.88
2023-03-30T10:03:52.391Z,90.00
2023-03-30T10:04:52.456Z,90.00
2023-03-30T10:05:52.240Z,112.50
2023-03-30T10:06:52.206Z,129.38
2023-03-30T10:07:52.203Z,129.38
2023-03-30T10:08:52.229Z,146.25
2023-03-30T10:09:52.209Z,123.75
2023-03-30T10:10:52.161Z,135.00
2023-03-30T10:11:52.162Z,129.38
2023-03-30T10:12:52.142Z,135.00
2023-03-30T10:13:52.248Z,129.38
2023-03-30T10:14:52.190Z,123.75
2023-03-30T10:15:52.216Z,95.62
2023-03-30T10:16:52.159Z,90.00
2023-03-30T10:17:52.080Z,84.38
2023-03-30T10:18:52.031Z,90.00
2023-03-30T10:20:00.391Z,78.75
2023-03-30T10:20:52.058Z,73.12
2023-03-30T10:21:52.079Z,78.75
2023-03-30T10:22:52.036Z,90.00
2023-03-30T10:23:51.970Z,101.25
2023-03-30T10:24:52.016Z,118.12
2023-03-30T10:25:51.968Z,106.88
2023-03-30T10:26:51.976Z,101.25
2023-03-30T10:27:53.099Z,106.88
2023-03-30T10:28:51.908Z,106.88
2023-03-30T10:29:54.213Z,140.62
2023-03-30T10:30:51.904Z,118.12
2023-03-30T10:31:51.924Z,140.62
2023-03-30T10:32:51.858Z,129.38
2023-03-30T10:33:51.893Z,106.88
2023-03-30T10:34:51.891Z,106.88
2023-03-30T10:35:51.864Z,123.75
2023-03-30T10:36:54.035Z,112.50
2023-03-30T10:37:51.779Z,123.75
2023-03-30T10:38:51.780Z,146.25
2023-03-30T10:39:51.750Z,146.25
2023-03-30T10:40:51.743Z,157.50
2023-03-30T10:41:51.831Z,174.38
2023-03-30T10:42:51.744Z,180.00
2023-03-30T10:43:51.693Z,174.38
2023-03-30T10:44:51.679Z,163.12
2023-03-30T10:45:51.681Z,180.00
2023-03-30T10:46:51.719Z,185.62
2023-03-30T10:48:12.877Z,185.62
2023-03-30T10:48:51.639Z,174.38
2023-03-30T10:49:53.796Z,151.88
2023-03-30T10:50:51.634Z,135.00
2023-03-30T10:51:51.766Z,123.75
2023-03-30T10:52:58.354Z,101.25
2023-03-30T10:53:51.588Z,95.62
2023-03-30T10:54:51.650Z,106.88
2023-03-30T10:55:51.532Z,106.88
2023-03-30T10:56:51.692Z,101.25
2023-03-30T10:57:51.537Z,95.62
2023-03-30T10:58:51.609Z,118.12
2023-03-30T10:59:51.551Z,140.62
2023-03-30T11:00:51.692Z,157.50
2023-03-30T11:01:51.505Z,157.50
2023-03-30T11:02:51.767Z,185.62
2023-03-30T11:03:51.582Z,213.75
2023-03-30T11:04:51.503Z,213.75
2023-03-30T11:05:51.403Z,202.50
2023-03-30T11:06:52.474Z,202.50
2023-03-30T11:07:51.431Z,202.50
2023-03-30T11:08:52.472Z,168.75
2023-03-30T11:09:51.389Z,180.00
2023-03-30T11:10:52.494Z,180.00
2023-03-30T11:11:51.330Z,157.50
2023-03-30T11:12:51.556Z,140.62
2023-03-30T11:13:51.283Z,123.75
2023-03-30T11:14:51.486Z,135.00
2023-03-30T11:15:51.297Z,135.00
2023-03-30T11:16:53.395Z,157.50
2023-03-30T11:17:51.427Z,151.88
2023-03-30T11:18:52.397Z,157.50
2023-03-30T11:19:51.207Z,191.25
2023-03-30T11:20:51.350Z,213.75
2023-03-30T11:21:51.241Z,202.50
2023-03-30T11:22:51.365Z,202.50
2023-03-30T11:23:51.177Z,180.00
2023-03-30T11:24:51.284Z,168.75
2023-03-30T11:25:51.132Z,180.00
2023-03-30T11:26:51.182Z,174.38
2023-03-30T11:27:52.514Z,185.62
2023-03-30T11:28:51.188Z,196.88
2023-03-30T11:29:51.094Z,213.75
2023-03-30T11:30:51.175Z,191.25
2023-03-30T11:31:51.117Z,174.38
2023-03-30T11:32:51.069Z,129.38
2023-03-30T11:33:51.052Z,95.62
2023-03-30T11:34:52.276Z,84.38
2023-03-30T11:35:51.064Z,73.12
2023-03-30T11:36:51.016Z,67.50
2023-03-30T11:37:50.979Z,78.75
2023-03-30T11:38:51.077Z,84.38
2023-03-30T11:39:50.935Z,106.88
2023-03-30T11:40:51.043Z,112.50
2023-03-30T11:41:50.971Z,135.00
2023-03-30T11:42:51.156Z,146.25
2023-03-30T11:43:50.927Z,157.50
2023-03-30T11:44:50.870Z,168.75
2023-03-30T11:45:50.903Z,129.38
2023-03-30T11:46:51.877Z,135.00
2023-03-30T11:47:51.310Z,129.38
2023-03-30T11:48:50.896Z,123.75
2023-03-30T11:49:50.841Z,168.75
2023-03-30T11:50:50.925Z,208.12
2023-03-30T11:51:50.767Z,146.25
2023-03-30T11:52:50.971Z,118.12
2023-03-30T11:53:50.775Z,84.38
2023-03-30T11:55:02.271Z,73.12
2023-03-30T11:55:50.787Z,90.00
2023-03-30T11:56:51.881Z,78.75
2023-03-30T11:57:50.762Z,67.50
2023-03-30T11:58:51.787Z,61.88
2023-03-30T11:59:50.668Z,56.25
2023-03-30T12:00:50.887Z,50.62
2023-03-30T12:01:50.657Z,67.50
2023-03-30T12:02:50.986Z,90.00
2023-03-30T12:03:50.726Z,118.12
2023-03-30T12:04:50.901Z,135.00
2023-03-30T12:05:51.111Z,123.75
2023-03-30T12:06:50.675Z,118.12
2023-03-30T12:07:50.569Z,118.12
2023-03-30T12:08:50.622Z,112.50
2023-03-30T12:09:50.520Z,101.25
2023-03-30T12:10:50.519Z,112.50
2023-03-30T12:11:50.488Z,118.12
2023-03-30T12:12:50.522Z,168.75
2023-03-30T12:13:51.472Z,151.88
2023-03-30T12:14:50.483Z,174.38
2023-03-30T12:15:50.618Z,168.75
2023-03-30T12:16:50.504Z,168.75
2023-03-30T12:17:50.662Z,163.12
2023-03-30T12:18:50.408Z,151.88
2023-03-30T12:20:11.507Z,168.75
2023-03-30T12:20:50.406Z,151.88
2023-03-30T12:21:50.496Z,140.62
2023-03-30T12:22:50.355Z,140.62
2023-03-30T12:23:50.376Z,174.38
2023-03-30T12:24:50.426Z,196.88
2023-03-30T12:25:50.319Z,185.62
2023-03-30T12:27:04.608Z,157.50
2023-03-30T12:27:50.321Z,168.75
2023-03-30T12:29:20.874Z,174.38
2023-03-30T12:30:49.239Z,168.75
2023-03-30T12:31:51.470Z,168.75
2023-03-30T12:32:50.281Z,185.62
2023-03-30T12:33:50.539Z,185.62
2023-03-30T12:34:50.186Z,185.62
2023-03-30T12:35:52.566Z,185.62
2023-03-30T12:36:50.202Z,157.50
2023-03-30T12:37:51.401Z,118.12
2023-03-30T12:38:50.207Z,95.62
2023-03-30T12:39:50.324Z,90.00
2023-03-30T12:40:50.104Z,84.38
2023-03-30T12:41:50.281Z,95.62
2023-03-30T12:42:50.121Z,101.25
2023-03-30T12:43:51.100Z,123.75
2023-03-30T12:44:50.081Z,123.75
2023-03-30T12:45:50.198Z,135.00
2023-03-30T12:46:50.278Z,129.38
2023-03-30T12:47:50.124Z,135.00
2023-03-30T12:48:50.091Z,180.00
2023-03-30T12:49:51.110Z,180.00
2023-03-30T12:50:49.970Z,140.62
2023-03-30T12:51:51.234Z,123.75
2023-03-30T12:52:49.972Z,106.88
2023-03-30T12:53:50.251Z,101.25
2023-03-30T12:54:49.945Z,123.75
2023-03-30T12:55:51.056Z,140.62
2023-03-30T12:56:49.941Z,146.25
2023-03-30T12:57:49.911Z,174.38
2023-03-30T12:58:49.924Z,180.00
2023-03-30T12:59:50.095Z,146.25
2023-03-30T13:00:49.821Z,151.88
2023-03-30T13:01:50.061Z,123.75
2023-03-30T13:02:49.848Z,101.25
2023-03-30T13:03:50.227Z,84.38
2023-03-30T13:04:49.843Z,78.75
2023-03-30T13:05:49.988Z,78.75
2023-03-30T13:06:49.816Z,78.75
2023-03-30T13:07:49.983Z,78.75
2023-03-30T13:08:49.733Z,78.75
2023-03-30T13:09:49.923Z,84.38
2023-03-30T13:10:49.709Z,90.00
2023-03-30T13:11:49.738Z,90.00
2023-03-30T13:12:49.670Z,73.12
2023-03-30T13:13:50.913Z,61.88